sensor_id;sensor_type;location;lat;lon;timestamp;P1;durP1;ratioP1;P2;durP2;ratioP2
73841;SDS011;62184;52.006;5.924;2023-09-08T00:01:55;13.60;;;12.30;;
73841;SDS011;62184;52.006;5.924;2023-09-08T00:04:22;13.50;;;12.20;;
73841;SDS011;62184;52.006;5.924;2023-09-08T00:06:51;13.68;;;12.32;;
73841;SDS011;62184;52.006;5.924;2023-09-08T00:09:18;13.43;;;12.13;;
73841;SDS011;62184;52.006;5.924;2023-09-08T00:11:44;13.90;;;12.50;;
73841;SDS011;62184;52.006;5.924;2023-09-08T00:14:11;13.95;;;12.55;;
73841;SDS011;62184;52.006;5.924;2023-09-08T00:16:37;14.00;;;12.70;;
73841;SDS011;62184;52.006;5.924;2023-09-08T00:19:04;14.50;;;13.00;;
73841;SDS011;62184;52.006;5.924;2023-09-08T00:21:30;14.25;;;12.85;;
73841;SDS011;62184;52.006;5.924;2023-09-08T00:23:59;14.27;;;12.87;;
73841;SDS011;62184;52.006;5.924;2023-09-08T00:26:26;14.05;;;12.60;;
73841;SDS011;62184;52.006;5.924;2023-09-08T00:28:52;13.93;;;12.35;;
73841;SDS011;62184;52.006;5.924;2023-09-08T00:31:19;14.55;;;12.65;;
73841;SDS011;62184;52.006;5.924;2023-09-08T00:33:45;13.63;;;12.23;;
73841;SDS011;62184;52.006;5.924;2023-09-08T00:36:12;13.23;;;11.83;;
73841;SDS011;62184;52.006;5.924;2023-09-08T00:38:38;14.45;;;12.80;;
73841;SDS011;62184;52.006;5.924;2023-09-08T00:41:08;15.68;;;12.38;;
73841;SDS011;62184;52.006;5.924;2023-09-08T00:43:34;14.30;;;12.80;;
73841;SDS011;62184;52.006;5.924;2023-09-08T00:46:00;13.88;;;12.48;;
73841;SDS011;62184;52.006;5.924;2023-09-08T00:48:27;14.20;;;12.80;;
73841;SDS011;62184;52.006;5.924;2023-09-08T00:50:54;14.18;;;12.68;;
73841;SDS011;62184;52.006;5.924;2023-09-08T00:53:21;13.57;;;12.07;;
73841;SDS011;62184;52.006;5.924;2023-09-08T00:55:48;14.20;;;12.80;;
73841;SDS011;62184;52.006;5.924;2023-09-08T00:58:18;15.07;;;13.60;;
73841;SDS011;62184;52.006;5.924;2023-09-08T01:00:45;14.63;;;13.10;;
73841;SDS011;62184;52.006;5.924;2023-09-08T01:03:11;14.48;;;12.98;;
73841;SDS011;62184;52.006;5.924;2023-09-08T01:05:38;14.57;;;13.07;;
73841;SDS011;62184;52.006;5.924;2023-09-08T01:08:05;14.00;;;12.60;;
73841;SDS011;62184;52.006;5.924;2023-09-08T01:10:32;14.15;;;12.70;;
73841;SDS011;62184;52.006;5.924;2023-09-08T01:13:00;14.33;;;12.90;;
73841;SDS011;62184;52.006;5.924;2023-09-08T01:15:29;14.80;;;13.30;;
73841;SDS011;62184;52.006;5.924;2023-09-08T01:17:56;14.60;;;13.10;;
73841;SDS011;62184;52.006;5.924;2023-09-08T01:20:23;14.85;;;13.35;;
73841;SDS011;62184;52.006;5.924;2023-09-08T01:23:01;14.93;;;13.32;;
73841;SDS011;62184;52.006;5.924;2023-09-08T01:25:46;14.85;;;13.35;;
73841;SDS011;62184;52.006;5.924;2023-09-08T01:28:18;14.70;;;12.68;;
73841;SDS011;62184;52.006;5.924;2023-09-08T01:30:47;15.32;;;13.80;;
73841;SDS011;62184;52.006;5.924;2023-09-08T01:33:15;15.35;;;13.70;;
73841;SDS011;62184;52.006;5.924;2023-09-08T01:35:41;15.05;;;13.55;;
73841;SDS011;62184;52.006;5.924;2023-09-08T01:38:08;15.05;;;13.45;;
73841;SDS011;62184;52.006;5.924;2023-09-08T01:40:35;15.03;;;13.50;;
73841;SDS011;62184;52.006;5.924;2023-09-08T01:43:04;15.50;;;13.65;;
73841;SDS011;62184;52.006;5.924;2023-09-08T01:45:31;15.35;;;13.75;;
73841;SDS011;62184;52.006;5.924;2023-09-08T01:47:58;15.10;;;13.57;;
73841;SDS011;62184;52.006;5.924;2023-09-08T01:50:24;14.38;;;12.98;;
73841;SDS011;62184;52.006;5.924;2023-09-08T01:52:51;15.30;;;13.70;;
73841;SDS011;62184;52.006;5.924;2023-09-08T01:55:17;14.73;;;13.27;;
73841;SDS011;62184;52.006;5.924;2023-09-08T01:57:44;15.67;;;14.07;;
73841;SDS011;62184;52.006;5.924;2023-09-08T02:00:13;15.73;;;14.18;;
73841;SDS011;62184;52.006;5.924;2023-09-08T02:02:40;15.23;;;13.68;;
73841;SDS011;62184;52.006;5.924;2023-09-08T02:05:07;15.30;;;13.52;;
73841;SDS011;62184;52.006;5.924;2023-09-08T02:07:34;15.82;;;13.90;;
73841;SDS011;62184;52.006;5.924;2023-09-08T02:10:00;15.73;;;13.50;;
73841;SDS011;62184;52.006;5.924;2023-09-08T02:12:27;15.02;;;13.43;;
73841;SDS011;62184;52.006;5.924;2023-09-08T02:14:53;16.05;;;14.35;;
73841;SDS011;62184;52.006;5.924;2023-09-08T02:17:22;16.13;;;14.52;;
73841;SDS011;62184;52.006;5.924;2023-09-08T02:19:49;15.15;;;13.57;;
73841;SDS011;62184;52.006;5.924;2023-09-08T02:22:16;15.90;;;14.30;;
73841;SDS011;62184;52.006;5.924;2023-09-08T02:24:42;16.20;;;14.52;;
73841;SDS011;62184;52.006;5.924;2023-09-08T02:27:08;16.15;;;13.90;;
73841;SDS011;62184;52.006;5.924;2023-09-08T02:29:35;15.55;;;13.80;;
73841;SDS011;62184;52.006;5.924;2023-09-08T02:32:02;15.57;;;14.02;;
73841;SDS011;62184;52.006;5.924;2023-09-08T02:34:33;15.70;;;14.07;;
73841;SDS011;62184;52.006;5.924;2023-09-08T02:37:00;16.25;;;14.43;;
73841;SDS011;62184;52.006;5.924;2023-09-08T02:39:27;16.25;;;14.55;;
73841;SDS011;62184;52.006;5.924;2023-09-08T02:41:53;15.85;;;14.23;;
73841;SDS011;62184;52.006;5.924;2023-09-08T02:44:20;16.77;;;14.70;;
73841;SDS011;62184;52.006;5.924;2023-09-08T02:46:46;16.88;;;14.90;;
73841;SDS011;62184;52.006;5.924;2023-09-08T02:49:13;16.63;;;14.90;;
73841;SDS011;62184;52.006;5.924;2023-09-08T02:51:42;18.10;;;15.38;;
73841;SDS011;62184;52.006;5.924;2023-09-08T02:54:08;17.05;;;15.30;;
73841;SDS011;62184;52.006;5.924;2023-09-08T02:56:35;16.17;;;14.38;;
73841;SDS011;62184;52.006;5.924;2023-09-08T02:59:01;17.85;;;15.20;;
73841;SDS011;62184;52.006;5.924;2023-09-08T03:01:28;16.75;;;14.95;;
73841;SDS011;62184;52.006;5.924;2023-09-08T03:03:54;17.50;;;15.32;;
73841;SDS011;62184;52.006;5.924;2023-09-08T03:06:21;16.40;;;14.35;;
73841;SDS011;62184;52.006;5.924;2023-09-08T03:08:50;16.98;;;15.18;;
73841;SDS011;62184;52.006;5.924;2023-09-08T03:11:16;16.55;;;14.75;;
73841;SDS011;62184;52.006;5.924;2023-09-08T03:13:42;16.67;;;14.88;;
73841;SDS011;62184;52.006;5.924;2023-09-08T03:16:09;16.27;;;14.57;;
73841;SDS011;62184;52.006;5.924;2023-09-08T03:18:36;17.85;;;15.27;;
73841;SDS011;62184;52.006;5.924;2023-09-08T03:21:03;17.73;;;15.68;;
73841;SDS011;62184;52.006;5.924;2023-09-08T03:23:31;16.58;;;14.85;;
73841;SDS011;62184;52.006;5.924;2023-09-08T03:26:00;16.83;;;15.00;;
73841;SDS011;62184;52.006;5.924;2023-09-08T03:28:27;17.73;;;15.68;;
73841;SDS011;62184;52.006;5.924;2023-09-08T03:30:53;17.90;;;16.05;;
73841;SDS011;62184;52.006;5.924;2023-09-08T03:33:20;17.13;;;15.33;;
73841;SDS011;62184;52.006;5.924;2023-09-08T03:35:46;17.00;;;15.20;;
73841;SDS011;62184;52.006;5.924;2023-09-08T03:38:13;17.10;;;15.30;;
73841;SDS011;62184;52.006;5.924;2023-09-08T03:40:39;17.25;;;15.43;;
73841;SDS011;62184;52.006;5.924;2023-09-08T03:43:09;17.42;;;15.52;;
73841;SDS011;62184;52.006;5.924;2023-09-08T03:45:35;18.33;;;16.20;;
73841;SDS011;62184;52.006;5.924;2023-09-08T03:48:02;17.65;;;15.85;;
73841;SDS011;62184;52.006;5.924;2023-09-08T03:50:29;17.40;;;15.60;;
73841;SDS011;62184;52.006;5.924;2023-09-08T03:52:56;18.40;;;16.47;;
73841;SDS011;62184;52.006;5.924;2023-09-08T03:55:23;18.42;;;16.40;;
73841;SDS011;62184;52.006;5.924;2023-09-08T03:57:49;17.95;;;16.02;;
73841;SDS011;62184;52.006;5.924;2023-09-08T04:00:18;17.30;;;15.50;;
73841;SDS011;62184;52.006;5.924;2023-09-08T04:02:45;18.25;;;16.27;;
73841;SDS011;62184;52.006;5.924;2023-09-08T04:05:12;18.05;;;16.25;;
73841;SDS011;62184;52.006;5.924;2023-09-08T04:07:38;18.48;;;16.13;;
73841;SDS011;62184;52.006;5.924;2023-09-08T04:10:05;18.67;;;16.27;;
73841;SDS011;62184;52.006;5.924;2023-09-08T04:12:34;18.88;;;16.80;;
73841;SDS011;62184;52.006;5.924;2023-09-08T04:15:00;18.48;;;16.48;;
73841;SDS011;62184;52.006;5.924;2023-09-08T04:17:29;18.27;;;16.30;;
73841;SDS011;62184;52.006;5.924;2023-09-08T04:19:56;18.35;;;16.35;;
73841;SDS011;62184;52.006;5.924;2023-09-08T04:22:22;19.47;;;16.77;;
73841;SDS011;62184;52.006;5.924;2023-09-08T04:24:49;18.73;;;16.65;;
73841;SDS011;62184;52.006;5.924;2023-09-08T04:27:15;18.15;;;16.35;;
73841;SDS011;62184;52.006;5.924;2023-09-08T04:29:42;18.80;;;16.80;;
73841;SDS011;62184;52.006;5.924;2023-09-08T04:32:08;19.33;;;16.83;;
73841;SDS011;62184;52.006;5.924;2023-09-08T04:34:39;18.75;;;16.73;;
73841;SDS011;62184;52.006;5.924;2023-09-08T04:37:07;19.55;;;16.92;;
73841;SDS011;62184;52.006;5.924;2023-09-08T04:39:34;18.63;;;16.65;;
73841;SDS011;62184;52.006;5.924;2023-09-08T04:42:02;18.30;;;16.33;;
73841;SDS011;62184;52.006;5.924;2023-09-08T04:44:29;19.80;;;17.20;;
73841;SDS011;62184;52.006;5.924;2023-09-08T04:46:56;18.90;;;16.90;;
73841;SDS011;62184;52.006;5.924;2023-09-08T04:49:22;19.10;;;16.60;;
73841;SDS011;62184;52.006;5.924;2023-09-08T04:51:52;18.67;;;16.67;;
73841;SDS011;62184;52.006;5.924;2023-09-08T04:54:19;19.70;;;17.05;;
73841;SDS011;62184;52.006;5.924;2023-09-08T04:56:46;19.10;;;16.60;;
73841;SDS011;62184;52.006;5.924;2023-09-08T04:59:12;19.30;;;16.40;;
73841;SDS011;62184;52.006;5.924;2023-09-08T05:01:39;18.83;;;16.83;;
73841;SDS011;62184;52.006;5.924;2023-09-08T05:04:05;20.33;;;16.90;;
73841;SDS011;62184;52.006;5.924;2023-09-08T05:06:31;19.55;;;17.08;;
73841;SDS011;62184;52.006;5.924;2023-09-08T05:09:01;18.77;;;16.65;;
73841;SDS011;62184;52.006;5.924;2023-09-08T05:11:27;18.95;;;17.02;;
73841;SDS011;62184;52.006;5.924;2023-09-08T05:13:54;18.33;;;16.43;;
73841;SDS011;62184;52.006;5.924;2023-09-08T05:16:20;21.10;;;16.95;;
73841;SDS011;62184;52.006;5.924;2023-09-08T05:18:47;19.83;;;16.25;;
73841;SDS011;62184;52.006;5.924;2023-09-08T05:21:13;19.30;;;16.75;;
73841;SDS011;62184;52.006;5.924;2023-09-08T05:23:40;18.15;;;16.25;;
73841;SDS011;62184;52.006;5.924;2023-09-08T05:26:09;19.07;;;16.40;;
73841;SDS011;62184;52.006;5.924;2023-09-08T05:28:35;18.58;;;16.50;;
73841;SDS011;62184;52.006;5.924;2023-09-08T05:31:02;18.45;;;16.05;;
73841;SDS011;62184;52.006;5.924;2023-09-08T05:33:28;17.83;;;15.93;;
73841;SDS011;62184;52.006;5.924;2023-09-08T05:35:54;19.90;;;16.08;;
73841;SDS011;62184;52.006;5.924;2023-09-08T05:38:21;18.10;;;16.10;;
73841;SDS011;62184;52.006;5.924;2023-09-08T05:40:47;17.90;;;16.00;;
73841;SDS011;62184;52.006;5.924;2023-09-08T05:43:16;18.75;;;16.00;;
73841;SDS011;62184;52.006;5.924;2023-09-08T05:45:43;18.65;;;15.70;;
73841;SDS011;62184;52.006;5.924;2023-09-08T05:48:09;18.25;;;15.55;;
73841;SDS011;62184;52.006;5.924;2023-09-08T05:50:36;18.30;;;15.50;;
73841;SDS011;62184;52.006;5.924;2023-09-08T05:53:02;18.83;;;16.38;;
73841;SDS011;62184;52.006;5.924;2023-09-08T05:55:29;17.47;;;15.47;;
73841;SDS011;62184;52.006;5.924;2023-09-08T05:57:56;19.08;;;15.80;;
73841;SDS011;62184;52.006;5.924;2023-09-08T06:00:25;17.58;;;15.68;;
73841;SDS011;62184;52.006;5.924;2023-09-08T06:02:52;18.55;;;15.88;;
73841;SDS011;62184;52.006;5.924;2023-09-08T06:05:18;18.30;;;15.32;;
73841;SDS011;62184;52.006;5.924;2023-09-08T06:07:45;18.40;;;16.37;;
73841;SDS011;62184;52.006;5.924;2023-09-08T06:10:11;18.08;;;16.05;;
73841;SDS011;62184;52.006;5.924;2023-09-08T06:12:38;18.40;;;15.93;;
73841;SDS011;62184;52.006;5.924;2023-09-08T06:15:05;18.10;;;16.20;;
73841;SDS011;62184;52.006;5.924;2023-09-08T06:17:35;19.25;;;16.10;;
73841;SDS011;62184;52.006;5.924;2023-09-08T06:20:02;19.25;;;15.93;;
73841;SDS011;62184;52.006;5.924;2023-09-08T06:22:28;18.73;;;16.50;;
73841;SDS011;62184;52.006;5.924;2023-09-08T06:24:55;18.05;;;16.10;;
73841;SDS011;62184;52.006;5.924;2023-09-08T06:27:21;17.42;;;15.50;;
73841;SDS011;62184;52.006;5.924;2023-09-08T06:29:48;19.15;;;16.42;;
73841;SDS011;62184;52.006;5.924;2023-09-08T06:32:14;20.17;;;16.38;;
73841;SDS011;62184;52.006;5.924;2023-09-08T06:34:43;18.48;;;16.45;;
73841;SDS011;62184;52.006;5.924;2023-09-08T06:37:10;18.67;;;16.47;;
73841;SDS011;62184;52.006;5.924;2023-09-08T06:39:37;18.73;;;16.13;;
73841;SDS011;62184;52.006;5.924;2023-09-08T06:42:04;19.02;;;16.27;;
73841;SDS011;62184;52.006;5.924;2023-09-08T06:44:30;17.98;;;16.08;;
73841;SDS011;62184;52.006;5.924;2023-09-08T06:46:56;18.02;;;15.82;;
73841;SDS011;62184;52.006;5.924;2023-09-08T06:49:23;19.77;;;16.10;;
73841;SDS011;62184;52.006;5.924;2023-09-08T06:51:52;18.65;;;16.60;;
73841;SDS011;62184;52.006;5.924;2023-09-08T06:54:19;18.77;;;16.20;;
73841;SDS011;62184;52.006;5.924;2023-09-08T06:56:45;18.80;;;16.80;;
73841;SDS011;62184;52.006;5.924;2023-09-08T06:59:11;18.58;;;16.55;;
73841;SDS011;62184;52.006;5.924;2023-09-08T07:01:38;18.38;;;16.40;;
73841;SDS011;62184;52.006;5.924;2023-09-08T07:04:05;19.45;;;16.67;;
73841;SDS011;62184;52.006;5.924;2023-09-08T07:06:31;17.55;;;15.57;;
73841;SDS011;62184;52.006;5.924;2023-09-08T07:09:00;18.70;;;16.80;;
73841;SDS011;62184;52.006;5.924;2023-09-08T07:11:27;18.65;;;16.48;;
73841;SDS011;62184;52.006;5.924;2023-09-08T07:13:53;18.40;;;16.17;;
73841;SDS011;62184;52.006;5.924;2023-09-08T07:16:20;18.17;;;16.25;;
73841;SDS011;62184;52.006;5.924;2023-09-08T07:18:46;18.55;;;15.93;;
73841;SDS011;62184;52.006;5.924;2023-09-08T07:21:13;18.05;;;16.13;;
73841;SDS011;62184;52.006;5.924;2023-09-08T07:23:39;19.15;;;15.70;;
73841;SDS011;62184;52.006;5.924;2023-09-08T07:26:08;18.43;;;16.00;;
73841;SDS011;62184;52.006;5.924;2023-09-08T07:28:35;17.10;;;15.30;;
73841;SDS011;62184;52.006;5.924;2023-09-08T07:31:01;17.70;;;15.80;;
73841;SDS011;62184;52.006;5.924;2023-09-08T07:33:28;18.00;;;15.40;;
73841;SDS011;62184;52.006;5.924;2023-09-08T07:35:55;17.35;;;15.38;;
73841;SDS011;62184;52.006;5.924;2023-09-08T07:38:21;17.63;;;15.63;;
73841;SDS011;62184;52.006;5.924;2023-09-08T07:40:48;15.87;;;14.17;;
73841;SDS011;62184;52.006;5.924;2023-09-08T07:43:17;16.63;;;14.80;;
73841;SDS011;62184;52.006;5.924;2023-09-08T07:45:44;16.13;;;14.33;;
73841;SDS011;62184;52.006;5.924;2023-09-08T07:48:10;16.90;;;15.18;;
73841;SDS011;62184;52.006;5.924;2023-09-08T07:50:37;16.77;;;14.68;;
73841;SDS011;62184;52.006;5.924;2023-09-08T07:53:03;17.77;;;14.95;;
73841;SDS011;62184;52.006;5.924;2023-09-08T07:55:30;17.40;;;15.40;;
73841;SDS011;62184;52.006;5.924;2023-09-08T07:57:57;17.20;;;15.40;;
73841;SDS011;62184;52.006;5.924;2023-09-08T08:00:27;17.98;;;15.20;;
73841;SDS011;62184;52.006;5.924;2023-09-08T08:02:54;16.52;;;14.40;;
73841;SDS011;62184;52.006;5.924;2023-09-08T08:05:22;16.13;;;14.38;;
73841;SDS011;62184;52.006;5.924;2023-09-08T08:07:49;17.05;;;15.25;;
73841;SDS011;62184;52.006;5.924;2023-09-08T08:10:18;17.30;;;15.43;;
73841;SDS011;62184;52.006;5.924;2023-09-08T08:12:45;17.08;;;15.15;;
73841;SDS011;62184;52.006;5.924;2023-09-08T08:15:11;16.60;;;14.90;;
73841;SDS011;62184;52.006;5.924;2023-09-08T08:17:41;16.95;;;15.15;;
73841;SDS011;62184;52.006;5.924;2023-09-08T08:20:08;17.92;;;14.85;;
73841;SDS011;62184;52.006;5.924;2023-09-08T08:22:37;17.02;;;15.23;;
73841;SDS011;62184;52.006;5.924;2023-09-08T08:25:04;16.20;;;14.50;;
73841;SDS011;62184;52.006;5.924;2023-09-08T08:27:31;18.55;;;15.05;;
73841;SDS011;62184;52.006;5.924;2023-09-08T08:29:57;17.75;;;14.85;;
73841;SDS011;62184;52.006;5.924;2023-09-08T08:32:24;16.70;;;14.90;;
73841;SDS011;62184;52.006;5.924;2023-09-08T08:34:54;16.60;;;14.90;;
73841;SDS011;62184;52.006;5.924;2023-09-08T08:37:20;17.38;;;14.77;;
73841;SDS011;62184;52.006;5.924;2023-09-08T08:39:47;16.35;;;14.60;;
73841;SDS011;62184;52.006;5.924;2023-09-08T08:42:14;16.45;;;14.70;;
73841;SDS011;62184;52.006;5.924;2023-09-08T08:44:41;17.17;;;14.60;;
73841;SDS011;62184;52.006;5.924;2023-09-08T08:47:08;17.30;;;15.15;;
73841;SDS011;62184;52.006;5.924;2023-09-08T08:49:36;17.70;;;15.60;;
73841;SDS011;62184;52.006;5.924;2023-09-08T08:52:10;17.55;;;15.70;;
73841;SDS011;62184;52.006;5.924;2023-09-08T08:54:38;18.07;;;15.60;;
73841;SDS011;62184;52.006;5.924;2023-09-08T08:57:05;18.50;;;15.18;;
73841;SDS011;62184;52.006;5.924;2023-09-08T08:59:33;16.65;;;14.82;;
73841;SDS011;62184;52.006;5.924;2023-09-08T09:02:00;17.25;;;14.98;;
73841;SDS011;62184;52.006;5.924;2023-09-08T09:04:28;15.70;;;14.07;;
73841;SDS011;62184;52.006;5.924;2023-09-08T09:06:55;16.38;;;14.68;;
73841;SDS011;62184;52.006;5.924;2023-09-08T09:09:25;17.20;;;14.60;;
73841;SDS011;62184;52.006;5.924;2023-09-08T09:11:52;16.50;;;14.80;;
73841;SDS011;62184;52.006;5.924;2023-09-08T09:14:18;15.47;;;13.97;;
73841;SDS011;62184;52.006;5.924;2023-09-08T09:16:45;16.10;;;14.38;;
73841;SDS011;62184;52.006;5.924;2023-09-08T09:19:17;16.23;;;14.53;;
73841;SDS011;62184;52.006;5.924;2023-09-08T09:21:46;15.98;;;14.27;;
73841;SDS011;62184;52.006;5.924;2023-09-08T09:24:14;15.95;;;14.18;;
73841;SDS011;62184;52.006;5.924;2023-09-08T09:26:44;15.93;;;13.85;;
73841;SDS011;62184;52.006;5.924;2023-09-08T09:29:13;15.45;;;13.70;;
73841;SDS011;62184;52.006;5.924;2023-09-08T09:31:52;15.48;;;13.98;;
73841;SDS011;62184;52.006;5.924;2023-09-08T09:34:21;15.55;;;13.95;;
73841;SDS011;62184;52.006;5.924;2023-09-08T09:36:48;15.60;;;13.67;;
73841;SDS011;62184;52.006;5.924;2023-09-08T09:39:19;15.05;;;13.55;;
73841;SDS011;62184;52.006;5.924;2023-09-08T09:41:49;15.00;;;13.52;;
73841;SDS011;62184;52.006;5.924;2023-09-08T09:44:19;14.50;;;13.00;;
73841;SDS011;62184;52.006;5.924;2023-09-08T09:46:48;15.48;;;13.88;;
73841;SDS011;62184;52.006;5.924;2023-09-08T09:49:17;15.43;;;14.00;;
73841;SDS011;62184;52.006;5.924;2023-09-08T09:51:44;15.32;;;13.82;;
73841;SDS011;62184;52.006;5.924;2023-09-08T09:54:13;15.07;;;13.60;;
73841;SDS011;62184;52.006;5.924;2023-09-08T09:56:41;15.20;;;13.60;;
73841;SDS011;62184;52.006;5.924;2023-09-08T09:59:12;15.02;;;13.45;;
73841;SDS011;62184;52.006;5.924;2023-09-08T10:01:39;16.10;;;14.50;;
73841;SDS011;62184;52.006;5.924;2023-09-08T10:04:07;16.40;;;13.68;;
73841;SDS011;62184;52.006;5.924;2023-09-08T10:06:35;15.90;;;14.40;;
73841;SDS011;62184;52.006;5.924;2023-09-08T10:09:04;15.43;;;13.83;;
73841;SDS011;62184;52.006;5.924;2023-09-08T10:11:34;17.00;;;15.23;;
73841;SDS011;62184;52.006;5.924;2023-09-08T10:14:07;16.48;;;14.75;;
73841;SDS011;62184;52.006;5.924;2023-09-08T10:16:38;17.50;;;15.73;;
73841;SDS011;62184;52.006;5.924;2023-09-08T10:19:07;16.08;;;14.38;;
73841;SDS011;62184;52.006;5.924;2023-09-08T10:21:36;16.38;;;14.75;;
73841;SDS011;62184;52.006;5.924;2023-09-08T10:24:11;17.90;;;16.00;;
73841;SDS011;62184;52.006;5.924;2023-09-08T10:26:44;17.45;;;15.70;;
73841;SDS011;62184;52.006;5.924;2023-09-08T10:29:21;16.30;;;14.60;;
73841;SDS011;62184;52.006;5.924;2023-09-08T10:31:52;14.85;;;13.35;;
73841;SDS011;62184;52.006;5.924;2023-09-08T10:34:21;15.30;;;13.80;;
73841;SDS011;62184;52.006;5.924;2023-09-08T10:36:51;15.43;;;13.82;;
73841;SDS011;62184;52.006;5.924;2023-09-08T10:39:27;16.20;;;14.60;;
73841;SDS011;62184;52.006;5.924;2023-09-08T10:44:58;13.02;;;11.82;;
73841;SDS011;62184;52.006;5.924;2023-09-08T10:47:30;13.90;;;12.48;;
73841;SDS011;62184;52.006;5.924;2023-09-08T10:49:59;14.13;;;12.63;;
73841;SDS011;62184;52.006;5.924;2023-09-08T10:52:26;13.95;;;12.55;;
73841;SDS011;62184;52.006;5.924;2023-09-08T10:54:53;13.10;;;11.83;;
73841;SDS011;62184;52.006;5.924;2023-09-08T10:57:22;13.52;;;12.13;;
73841;SDS011;62184;52.006;5.924;2023-09-08T10:59:51;13.40;;;12.00;;
73841;SDS011;62184;52.006;5.924;2023-09-08T11:05:06;15.38;;;11.70;;
73841;SDS011;62184;52.006;5.924;2023-09-08T11:07:35;13.45;;;12.15;;
73841;SDS011;62184;52.006;5.924;2023-09-08T11:10:02;14.00;;;12.60;;
73841;SDS011;62184;52.006;5.924;2023-09-08T11:12:29;15.85;;;14.25;;
73841;SDS011;62184;52.006;5.924;2023-09-08T11:14:56;15.75;;;14.27;;
73841;SDS011;62184;52.006;5.924;2023-09-08T11:17:24;15.07;;;13.60;;
73841;SDS011;62184;52.006;5.924;2023-09-08T11:19:54;16.23;;;14.63;;
73841;SDS011;62184;52.006;5.924;2023-09-08T11:22:22;14.95;;;13.45;;
73841;SDS011;62184;52.006;5.924;2023-09-08T11:24:50;16.00;;;14.40;;
73841;SDS011;62184;52.006;5.924;2023-09-08T11:27:18;14.07;;;12.63;;
73841;SDS011;62184;52.006;5.924;2023-09-08T11:29:47;14.77;;;13.27;;
73841;SDS011;62184;52.006;5.924;2023-09-08T11:32:13;16.38;;;14.68;;
73841;SDS011;62184;52.006;5.924;2023-09-08T11:34:40;16.37;;;14.67;;
73841;SDS011;62184;52.006;5.924;2023-09-08T11:37:10;14.80;;;13.43;;
73841;SDS011;62184;52.006;5.924;2023-09-08T11:39:38;14.43;;;13.10;;
73841;SDS011;62184;52.006;5.924;2023-09-08T11:42:05;14.70;;;13.20;;
73841;SDS011;62184;52.006;5.924;2023-09-08T11:44:34;14.07;;;12.67;;
73841;SDS011;62184;52.006;5.924;2023-09-08T11:47:01;15.00;;;13.50;;
73841;SDS011;62184;52.006;5.924;2023-09-08T11:49:33;12.85;;;11.57;;
73841;SDS011;62184;52.006;5.924;2023-09-08T11:52:00;12.90;;;11.63;;
73841;SDS011;62184;52.006;5.924;2023-09-08T11:54:29;13.07;;;11.77;;
73841;SDS011;62184;52.006;5.924;2023-09-08T11:56:57;13.40;;;12.10;;
73841;SDS011;62184;52.006;5.924;2023-09-08T11:59:26;13.30;;;11.60;;
73841;SDS011;62184;52.006;5.924;2023-09-08T12:01:56;12.33;;;11.13;;
73841;SDS011;62184;52.006;5.924;2023-09-08T12:04:22;12.65;;;11.45;;
73841;SDS011;62184;52.006;5.924;2023-09-08T12:06:49;12.55;;;11.30;;
73841;SDS011;62184;52.006;5.924;2023-09-08T12:09:20;11.93;;;10.80;;
73841;SDS011;62184;52.006;5.924;2023-09-08T12:11:50;11.90;;;10.85;;
73841;SDS011;62184;52.006;5.924;2023-09-08T12:14:16;11.60;;;10.40;;
73841;SDS011;62184;52.006;5.924;2023-09-08T12:16:43;11.63;;;10.43;;
73841;SDS011;62184;52.006;5.924;2023-09-08T12:21:55;11.60;;;10.50;;
73841;SDS011;62184;52.006;5.924;2023-09-08T12:27:17;11.50;;;10.30;;
73841;SDS011;62184;52.006;5.924;2023-09-08T12:29:51;10.80;;;9.80;;
73841;SDS011;62184;52.006;5.924;2023-09-08T12:32:19;11.32;;;10.27;;
73841;SDS011;62184;52.006;5.924;2023-09-08T12:34:46;11.50;;;10.38;;
73841;SDS011;62184;52.006;5.924;2023-09-08T12:37:12;10.88;;;9.88;;
73841;SDS011;62184;52.006;5.924;2023-09-08T12:39:39;11.70;;;10.50;;
73841;SDS011;62184;52.006;5.924;2023-09-08T12:42:05;11.53;;;10.47;;
73841;SDS011;62184;52.006;5.924;2023-09-08T12:44:35;11.30;;;10.20;;
73841;SDS011;62184;52.006;5.924;2023-09-08T12:47:01;11.93;;;10.75;;
73841;SDS011;62184;52.006;5.924;2023-09-08T12:49:28;12.05;;;10.93;;
73841;SDS011;62184;52.006;5.924;2023-09-08T12:51:54;11.73;;;10.63;;
73841;SDS011;62184;52.006;5.924;2023-09-08T12:54:21;12.05;;;10.95;;
73841;SDS011;62184;52.006;5.924;2023-09-08T12:56:47;12.88;;;11.63;;
73841;SDS011;62184;52.006;5.924;2023-09-08T12:59:14;12.40;;;11.10;;
73841;SDS011;62184;52.006;5.924;2023-09-08T13:01:43;12.15;;;10.95;;
73841;SDS011;62184;52.006;5.924;2023-09-08T13:04:09;11.65;;;10.55;;
73841;SDS011;62184;52.006;5.924;2023-09-08T13:06:35;12.02;;;10.82;;
73841;SDS011;62184;52.006;5.924;2023-09-08T13:09:02;12.90;;;11.60;;
73841;SDS011;62184;52.006;5.924;2023-09-08T13:11:29;12.40;;;11.10;;
73841;SDS011;62184;52.006;5.924;2023-09-08T13:13:55;12.32;;;11.13;;
73841;SDS011;62184;52.006;5.924;2023-09-08T13:16:22;11.70;;;10.60;;
73841;SDS011;62184;52.006;5.924;2023-09-08T13:18:51;12.10;;;11.00;;
73841;SDS011;62184;52.006;5.924;2023-09-08T13:21:17;12.02;;;10.93;;
73841;SDS011;62184;52.006;5.924;2023-09-08T13:23:44;11.95;;;10.75;;
73841;SDS011;62184;52.006;5.924;2023-09-08T13:26:10;12.73;;;11.07;;
73841;SDS011;62184;52.006;5.924;2023-09-08T13:28:36;12.00;;;10.90;;
73841;SDS011;62184;52.006;5.924;2023-09-08T13:31:03;12.68;;;11.48;;
73841;SDS011;62184;52.006;5.924;2023-09-08T13:33:29;12.25;;;11.05;;
73841;SDS011;62184;52.006;5.924;2023-09-08T13:35:58;11.63;;;10.53;;
73841;SDS011;62184;52.006;5.924;2023-09-08T13:38:25;12.23;;;11.10;;
73841;SDS011;62184;52.006;5.924;2023-09-08T13:40:51;11.40;;;10.23;;
73841;SDS011;62184;52.006;5.924;2023-09-08T13:43:18;12.25;;;11.05;;
73841;SDS011;62184;52.006;5.924;2023-09-08T13:45:44;11.33;;;10.30;;
73841;SDS011;62184;52.006;5.924;2023-09-08T13:48:11;12.15;;;9.57;;
73841;SDS011;62184;52.006;5.924;2023-09-08T13:50:37;10.40;;;9.40;;
73841;SDS011;62184;52.006;5.924;2023-09-08T13:53:07;10.95;;;9.85;;
73841;SDS011;62184;52.006;5.924;2023-09-08T13:55:33;11.47;;;9.63;;
73841;SDS011;62184;52.006;5.924;2023-09-08T13:58:00;10.30;;;9.35;;
73841;SDS011;62184;52.006;5.924;2023-09-08T14:00:26;10.50;;;9.50;;
73841;SDS011;62184;52.006;5.924;2023-09-08T14:02:52;10.50;;;9.40;;
73841;SDS011;62184;52.006;5.924;2023-09-08T14:05:19;10.30;;;9.30;;
73841;SDS011;62184;52.006;5.924;2023-09-08T14:07:45;11.02;;;9.82;;
73841;SDS011;62184;52.006;5.924;2023-09-08T14:10:14;10.95;;;9.65;;
73841;SDS011;62184;52.006;5.924;2023-09-08T14:12:41;10.90;;;9.90;;
73841;SDS011;62184;52.006;5.924;2023-09-08T14:15:08;11.02;;;9.93;;
73841;SDS011;62184;52.006;5.924;2023-09-08T14:17:35;11.35;;;10.25;;
73841;SDS011;62184;52.006;5.924;2023-09-08T14:20:01;11.10;;;9.90;;
73841;SDS011;62184;52.006;5.924;2023-09-08T14:22:28;11.17;;;10.00;;
73841;SDS011;62184;52.006;5.924;2023-09-08T14:24:54;11.20;;;10.05;;
73841;SDS011;62184;52.006;5.924;2023-09-08T14:27:23;11.10;;;10.00;;
73841;SDS011;62184;52.006;5.924;2023-09-08T14:29:50;11.05;;;10.05;;
73841;SDS011;62184;52.006;5.924;2023-09-08T14:32:16;10.80;;;9.80;;
73841;SDS011;62184;52.006;5.924;2023-09-08T14:34:43;11.00;;;9.90;;